createdAt,value
2017-10-10T00:03:20.954Z,0
2017-10-10T00:13:22.628Z,0
2017-10-10T00:23:22.695Z,0
2017-10-10T00:33:24.210Z,0
2017-10-10T00:43:20.979Z,0
2017-10-10T00:53:29.083Z,0
2017-10-10T01:03:20.717Z,0
2017-10-10T01:13:20.770Z,0
2017-10-10T01:23:27.587Z,0
2017-10-10T01:33:20.728Z,0
2017-10-10T01:43:22.093Z,0
2017-10-10T01:53:22.051Z,0
2017-10-10T02:03:21.113Z,0
2017-10-10T02:13:21.187Z,0
2017-10-10T02:23:25.113Z,0
2017-10-10T02:33:25.075Z,0
2017-10-10T02:43:24.617Z,0
2017-10-10T02:53:21.100Z,0
2017-10-10T03:03:22.179Z,0
2017-10-10T03:13:24.493Z,0
2017-10-10T03:23:22.525Z,0
2017-10-10T03:33:21.143Z,0
2017-10-10T03:43:26.631Z,0
2017-10-10T03:53:21.128Z,0
2017-10-10T04:03:21.245Z,0
2017-10-10T04:13:23.251Z,0
2017-10-10T04:23:21.165Z,0
2017-10-10T04:33:21.232Z,0
2017-10-10T04:43:21.274Z,0
2017-10-10T04:53:23.693Z,0
2017-10-10T05:03:21.219Z,0
2017-10-10T05:13:21.264Z,0
2017-10-10T05:23:22.616Z,0
2017-10-10T05:33:21.272Z,0
2017-10-10T05:43:21.351Z,0
2017-10-10T05:53:21.313Z,0
2017-10-10T06:03:23.380Z,0
2017-10-10T06:13:21.323Z,0
2017-10-10T06:23:21.633Z,5
2017-10-10T06:33:21.376Z,5
2017-10-10T06:43:22.403Z,10
2017-10-10T06:53:22.392Z,5
2017-10-10T07:03:21.382Z,20
2017-10-10T07:13:21.378Z,20
2017-10-10T07:23:21.413Z,30
2017-10-10T07:33:21.448Z,30
2017-10-10T07:43:22.435Z,40
2017-10-10T07:53:21.784Z,30
2017-10-10T08:03:22.422Z,45
2017-10-10T08:13:22.385Z,55
2017-10-10T08:23:21.690Z,30
2017-10-10T08:33:21.453Z,35
2017-10-10T08:43:22.489Z,25
2017-10-10T08:53:21.425Z,75
2017-10-10T09:03:21.424Z,155
2017-10-10T09:13:21.476Z,145
2017-10-10T09:23:21.829Z,115
2017-10-10T09:33:21.425Z,85
2017-10-10T09:43:21.440Z,120
2017-10-10T09:53:21.483Z,105
2017-10-10T10:03:21.460Z,160
2017-10-10T10:13:21.530Z,195
2017-10-10T10:23:21.842Z,195
2017-10-10T10:33:21.504Z,250
2017-10-10T10:43:21.504Z,180
2017-10-10T10:53:21.495Z,150
2017-10-10T11:03:21.550Z,135
2017-10-10T11:13:21.508Z,140
2017-10-10T11:23:21.934Z,160
2017-10-10T11:33:21.529Z,130
2017-10-10T11:43:21.951Z,130
2017-10-10T11:53:21.957Z,220
2017-10-10T12:03:21.608Z,190
2017-10-10T12:13:22.649Z,170
2017-10-10T12:23:21.521Z,105
2017-10-10T12:33:22.968Z,110
2017-10-10T12:43:21.551Z,105
2017-10-10T12:53:21.626Z,140
2017-10-10T13:03:21.582Z,125
2017-10-10T13:13:22.609Z,125
2017-10-10T13:23:21.758Z,100
2017-10-10T13:33:21.719Z,140
2017-10-10T13:43:21.570Z,70
2017-10-10T13:53:21.980Z,105
2017-10-10T14:03:21.569Z,65
2017-10-10T14:13:21.667Z,35
2017-10-10T14:23:21.617Z,45
2017-10-10T14:33:21.572Z,30
2017-10-10T14:43:21.654Z,20
2017-10-10T14:53:21.569Z,10
2017-10-10T15:03:21.541Z,10
2017-10-10T15:13:21.646Z,10
2017-10-10T15:23:21.601Z,5
2017-10-10T15:33:21.675Z,10
2017-10-10T15:43:21.628Z,20
2017-10-10T15:53:21.635Z,10
2017-10-10T16:03:21.675Z,10
2017-10-10T16:13:22.011Z,5
2017-10-10T16:23:21.558Z,5
2017-10-10T16:33:21.593Z,0
2017-10-10T16:43:21.713Z,0
2017-10-10T16:53:21.649Z,0
2017-10-10T17:03:21.608Z,0
2017-10-10T17:13:34.366Z,0
2017-10-10T17:23:21.504Z,0
2017-10-10T17:33:36.266Z,0
2017-10-10T17:43:48.686Z,0
2017-10-10T17:53:23.357Z,0
2017-10-10T18:03:25.504Z,0
2017-10-10T18:13:26.634Z,0
2017-10-10T18:23:26.119Z,0
2017-10-10T18:33:25.636Z,0
2017-10-10T18:43:25.402Z,0
2017-10-10T18:53:25.812Z,0
2017-10-10T19:03:25.585Z,0
2017-10-10T19:13:25.712Z,0
2017-10-10T19:23:25.659Z,0
2017-10-10T19:33:26.235Z,0
2017-10-10T19:43:25.750Z,0
2017-10-10T19:53:25.727Z,0
2017-10-10T20:03:25.570Z,0
2017-10-10T20:13:25.659Z,0
2017-10-10T20:23:29.184Z,0
2017-10-10T20:33:22.005Z,0
2017-10-10T20:43:21.654Z,0
2017-10-10T20:53:21.660Z,0
2017-10-10T21:03:21.690Z,0
2017-10-10T21:13:21.680Z,0
2017-10-10T21:23:22.482Z,0
2017-10-10T21:33:21.735Z,0
2017-10-10T21:43:21.741Z,0
2017-10-10T21:53:21.718Z,0
2017-10-10T22:03:21.760Z,0
2017-10-10T22:13:21.662Z,0
2017-10-10T22:23:21.761Z,0
2017-10-10T22:33:21.741Z,0
2017-10-10T22:43:21.747Z,0
2017-10-10T22:53:21.719Z,0
2017-10-10T23:03:21.773Z,0
2017-10-10T23:13:21.715Z,0
2017-10-10T23:23:21.850Z,0
2017-10-10T23:33:21.768Z,0
2017-10-10T23:43:21.862Z,0
2017-10-10T23:53:21.824Z,0
